createdAt,value
2022-08-16T00:01:41.771Z,28.10
2022-08-16T00:04:13.117Z,28.20
2022-08-16T00:06:44.980Z,28.20
2022-08-16T00:09:16.264Z,28.20
2022-08-16T00:11:52.607Z,28.30
2022-08-16T00:14:31.320Z,28.40
2022-08-16T00:17:15.835Z,28.40
2022-08-16T00:19:53.623Z,28.50
2022-08-16T00:22:27.901Z,28.50
2022-08-16T00:25:00.453Z,28.60
2022-08-16T00:27:31.521Z,28.60
2022-08-16T00:30:09.369Z,28.70
2022-08-16T00:32:54.029Z,28.80
2022-08-16T00:35:35.404Z,28.90
2022-08-16T00:38:40.095Z,29.00
2022-08-16T00:41:01.546Z,29.00
2022-08-16T00:43:40.770Z,29.00
2022-08-16T00:47:02.220Z,29.00
2022-08-16T00:49:44.780Z,29.10
2022-08-16T00:52:29.643Z,29.30
2022-08-16T00:55:22.757Z,29.40
2022-08-16T00:57:59.939Z,29.50
2022-08-16T01:00:34.676Z,29.50
2022-08-16T01:03:12.657Z,29.60
2022-08-16T01:05:45.140Z,29.60
2022-08-16T01:08:35.862Z,29.60
2022-08-16T01:11:10.374Z,29.60
2022-08-16T01:13:44.754Z,29.70
2022-08-16T01:16:25.815Z,29.70
2022-08-16T01:19:03.518Z,29.80
2022-08-16T01:22:49.965Z,29.80
2022-08-16T01:24:53.831Z,29.90
2022-08-16T01:27:34.435Z,29.90
2022-08-16T01:30:29.029Z,30.00
2022-08-16T01:33:15.565Z,30.10
2022-08-16T01:36:11.755Z,30.10
2022-08-16T01:38:51.226Z,30.20
2022-08-16T01:41:32.663Z,30.20
2022-08-16T01:44:13.720Z,30.30
2022-08-16T01:47:11.455Z,30.40
2022-08-16T01:50:42.001Z,30.30
2022-08-16T01:52:36.772Z,30.40
2022-08-16T01:55:23.165Z,30.50
2022-08-16T01:57:56.655Z,30.50
2022-08-16T02:00:31.313Z,30.70
2022-08-16T02:03:04.434Z,30.70
2022-08-16T02:05:35.588Z,30.70
2022-08-16T02:08:08.587Z,30.80
2022-08-16T02:11:00.146Z,30.90
2022-08-16T02:13:32.779Z,30.90
2022-08-16T02:16:04.522Z,30.90
2022-08-16T02:18:35.887Z,30.90
2022-08-16T02:21:11.366Z,31.10
2022-08-16T02:23:43.415Z,31.20
2022-08-16T02:26:17.021Z,31.20
2022-08-16T02:28:50.864Z,31.20
2022-08-16T02:32:04.508Z,30.90
2022-08-16T02:34:16.036Z,30.90
2022-08-16T02:37:07.306Z,31.10
2022-08-16T02:39:38.902Z,31.10
2022-08-16T02:42:12.818Z,31.20
2022-08-16T02:44:44.525Z,31.40
2022-08-16T02:47:25.442Z,31.40
2022-08-16T02:50:30.594Z,31.40
2022-08-16T02:52:49.787Z,31.40
2022-08-16T02:55:41.040Z,31.60
2022-08-16T02:58:14.186Z,31.50
2022-08-16T03:01:37.312Z,31.60
2022-08-16T03:04:39.696Z,31.60
2022-08-16T03:07:16.064Z,31.80
2022-08-16T03:10:00.579Z,31.90
2022-08-16T03:12:36.670Z,32.10
2022-08-16T03:15:11.670Z,32.20
2022-08-16T03:17:53.268Z,32.10
2022-08-16T03:20:32.253Z,32.20
2022-08-16T03:23:07.888Z,32.20
2022-08-16T03:25:43.959Z,32.30
2022-08-16T03:28:17.822Z,32.30
2022-08-16T03:30:51.347Z,32.50
2022-08-16T03:33:25.353Z,32.50
2022-08-16T03:36:29.691Z,32.40
2022-08-16T03:38:59.440Z,32.40
2022-08-16T03:41:44.495Z,32.40
2022-08-16T03:44:43.792Z,32.50
2022-08-16T03:47:18.562Z,32.60
2022-08-16T03:50:26.223Z,32.70
2022-08-16T03:53:04.213Z,32.80
2022-08-16T03:55:45.307Z,33.00
2022-08-16T03:58:38.521Z,33.20
2022-08-16T04:01:12.025Z,33.00
2022-08-16T04:03:44.257Z,33.00
2022-08-16T04:06:15.882Z,32.90
2022-08-16T04:08:47.415Z,32.80
2022-08-16T04:11:18.578Z,32.80
2022-08-16T04:14:00.408Z,33.00
2022-08-16T04:16:44.109Z,33.50
2022-08-16T04:19:37.602Z,34.00
2022-08-16T04:22:22.029Z,33.90
2022-08-16T04:25:04.841Z,34.20
2022-08-16T04:27:41.308Z,34.20
2022-08-16T04:30:32.432Z,34.00
2022-08-16T04:33:08.684Z,33.90
2022-08-16T04:35:42.306Z,34.10
2022-08-16T04:38:21.751Z,34.10
2022-08-16T04:40:57.029Z,34.10
2022-08-16T04:43:29.709Z,34.40
2022-08-16T04:46:04.271Z,34.20
2022-08-16T04:48:56.775Z,34.10
2022-08-16T04:51:28.961Z,34.10
2022-08-16T04:54:27.805Z,34.50
2022-08-16T04:57:01.817Z,34.60
2022-08-16T04:59:34.491Z,35.10
2022-08-16T05:02:41.606Z,35.30
2022-08-16T05:04:58.017Z,35.30
2022-08-16T05:07:30.183Z,35.50
2022-08-16T05:10:19.678Z,35.30
2022-08-16T05:12:55.324Z,35.10
2022-08-16T05:15:29.762Z,35.30
2022-08-16T05:18:05.273Z,35.20
2022-08-16T05:20:56.967Z,35.10
2022-08-16T05:23:33.580Z,35.00
2022-08-16T05:26:06.267Z,35.00
2022-08-16T05:28:55.174Z,35.10
2022-08-16T05:31:30.432Z,35.00
2022-08-16T05:34:04.909Z,34.80
2022-08-16T05:36:52.734Z,34.90
2022-08-16T05:39:28.652Z,34.90
2022-08-16T05:42:00.588Z,35.10
2022-08-16T05:44:31.991Z,35.40
2022-08-16T05:47:05.690Z,35.50
2022-08-16T05:49:40.079Z,35.50
2022-08-16T05:52:17.388Z,35.10
2022-08-16T05:55:01.062Z,34.70
2022-08-16T05:57:37.211Z,34.40
2022-08-16T06:00:20.393Z,34.20
2022-08-16T06:02:57.010Z,34.30
2022-08-16T06:06:00.698Z,34.60
2022-08-16T06:08:41.932Z,34.70
2022-08-16T06:11:14.070Z,35.20
2022-08-16T06:13:55.676Z,35.40
2022-08-16T06:16:41.792Z,35.40
2022-08-16T06:19:13.642Z,35.10
2022-08-16T06:22:19.391Z,35.30
2022-08-16T06:25:16.421Z,35.50
2022-08-16T06:27:57.313Z,35.30
2022-08-16T06:30:34.213Z,35.20
2022-08-16T06:33:05.968Z,35.40
2022-08-16T06:35:43.902Z,35.40
2022-08-16T06:38:36.339Z,35.40
2022-08-16T06:41:20.431Z,35.60
2022-08-16T06:43:53.935Z,35.80
2022-08-16T06:46:35.674Z,35.80
2022-08-16T06:49:16.088Z,36.10
2022-08-16T06:51:49.115Z,36.20
2022-08-16T06:54:27.155Z,36.10
2022-08-16T06:56:59.995Z,36.00
2022-08-16T06:59:31.427Z,35.90
2022-08-16T07:02:32.883Z,35.90
2022-08-16T07:05:14.857Z,36.00
2022-08-16T07:07:56.520Z,35.80
2022-08-16T07:10:30.518Z,35.80
2022-08-16T07:13:12.021Z,35.70
2022-08-16T07:15:50.679Z,35.90
2022-08-16T07:18:28.994Z,36.00
2022-08-16T07:21:02.475Z,36.10
2022-08-16T07:23:38.967Z,36.50
2022-08-16T07:26:25.374Z,36.60
2022-08-16T07:29:00.458Z,36.40
2022-08-16T07:31:37.840Z,36.40
2022-08-16T07:34:14.290Z,36.40
2022-08-16T07:36:58.055Z,36.50
2022-08-16T07:39:36.215Z,36.40
2022-08-16T07:42:20.092Z,36.20
2022-08-16T07:44:57.343Z,36.30
2022-08-16T07:47:51.159Z,36.30
2022-08-16T07:50:56.563Z,36.30
2022-08-16T07:53:43.800Z,36.30
2022-08-16T07:56:20.215Z,36.40
2022-08-16T07:58:55.616Z,36.40
2022-08-16T08:01:40.251Z,36.70
2022-08-16T08:04:40.448Z,36.90
2022-08-16T08:07:13.767Z,37.10
2022-08-16T08:09:48.628Z,37.00
2022-08-16T08:12:31.824Z,36.80
2022-08-16T08:15:11.625Z,36.60
2022-08-16T08:17:46.216Z,36.50
2022-08-16T08:20:44.092Z,36.60
2022-08-16T08:23:31.541Z,36.60
2022-08-16T08:26:04.545Z,36.80
2022-08-16T08:28:40.567Z,37.10
2022-08-16T08:31:17.115Z,36.60
2022-08-16T08:33:51.597Z,36.40
2022-08-16T08:36:34.136Z,36.40
2022-08-16T08:39:17.350Z,36.40
2022-08-16T08:41:53.904Z,36.30
2022-08-16T08:44:28.562Z,36.40
2022-08-16T08:47:12.191Z,36.20
2022-08-16T08:49:46.099Z,36.10
2022-08-16T08:52:34.827Z,36.10
2022-08-16T08:55:12.958Z,36.10
2022-08-16T08:57:49.499Z,36.10
2022-08-16T09:00:30.095Z,36.30
2022-08-16T09:03:07.985Z,36.10
2022-08-16T09:05:46.612Z,36.10
2022-08-16T09:08:26.537Z,36.30
2022-08-16T09:11:03.990Z,36.10
2022-08-16T09:13:47.335Z,36.00
2022-08-16T09:17:01.173Z,36.00
2022-08-16T09:19:14.628Z,35.90
2022-08-16T09:21:46.531Z,35.90
2022-08-16T09:24:46.598Z,35.90
2022-08-16T09:27:19.538Z,36.00
2022-08-16T09:29:59.754Z,36.20
2022-08-16T09:32:32.867Z,36.10
2022-08-16T09:35:07.390Z,36.20
2022-08-16T09:37:38.765Z,36.30
2022-08-16T09:40:33.124Z,36.30
2022-08-16T09:43:02.966Z,36.20
2022-08-16T09:45:40.524Z,35.90
2022-08-16T09:48:44.215Z,35.70
2022-08-16T09:51:08.432Z,35.60
2022-08-16T09:53:43.121Z,35.50
2022-08-16T09:56:30.339Z,35.30
2022-08-16T09:59:08.582Z,35.20
2022-08-16T10:01:43.657Z,35.00
2022-08-16T10:04:30.927Z,34.90
2022-08-16T10:07:14.770Z,34.80
2022-08-16T10:09:55.260Z,34.80
2022-08-16T10:12:55.709Z,34.70
2022-08-16T10:15:30.490Z,34.70
2022-08-16T10:18:02.607Z,34.40
2022-08-16T10:20:53.124Z,34.20
2022-08-16T10:23:31.096Z,34.10
2022-08-16T10:27:00.649Z,34.00
2022-08-16T10:29:20.048Z,33.90
2022-08-16T10:31:53.711Z,33.40
2022-08-16T10:34:31.092Z,33.30
2022-08-16T10:37:05.399Z,33.20
2022-08-16T10:39:41.706Z,33.10
2022-08-16T10:42:14.436Z,33.00
2022-08-16T10:44:53.955Z,33.00
2022-08-16T10:47:28.226Z,32.80
2022-08-16T10:50:04.028Z,32.70
2022-08-16T10:58:11.744Z,32.50
2022-08-16T11:00:46.213Z,32.50
2022-08-16T11:06:12.209Z,32.10
2022-08-16T11:08:45.805Z,32.10
2022-08-16T11:12:13.266Z,32.10
2022-08-16T11:14:28.876Z,32.00
2022-08-16T11:17:09.544Z,31.90
2022-08-16T11:20:41.179Z,31.80
2022-08-16T11:22:57.734Z,31.60
2022-08-16T11:31:14.427Z,31.20
2022-08-16T11:33:54.965Z,31.00
2022-08-16T11:36:28.259Z,31.10
2022-08-16T11:39:04.568Z,31.10
2022-08-16T11:41:43.701Z,31.10
2022-08-16T11:44:20.386Z,31.10
2022-08-16T11:47:05.633Z,31.00
2022-08-16T11:49:36.912Z,30.70
2022-08-16T11:52:08.890Z,30.50
2022-08-16T11:54:41.672Z,30.60
2022-08-16T11:57:25.690Z,30.50
2022-08-16T11:59:58.564Z,30.30
2022-08-16T12:02:33.035Z,30.30
2022-08-16T12:05:04.531Z,30.30
2022-08-16T12:07:36.733Z,30.40
2022-08-16T12:10:16.450Z,30.40
2022-08-16T12:12:49.212Z,30.30
2022-08-16T12:16:03.634Z,30.30
2022-08-16T12:18:54.332Z,30.30
2022-08-16T12:21:26.872Z,30.30
2022-08-16T12:24:08.391Z,30.30
2022-08-16T12:26:40.310Z,30.30
2022-08-16T12:29:11.735Z,30.30
2022-08-16T12:31:59.279Z,30.10
2022-08-16T12:34:36.483Z,30.00
2022-08-16T12:37:10.790Z,30.00
2022-08-16T12:39:50.847Z,30.00
2022-08-16T12:42:35.405Z,30.00
2022-08-16T12:45:51.832Z,30.00
2022-08-16T12:48:48.305Z,29.90
2022-08-16T12:51:26.746Z,29.60
2022-08-16T12:54:09.216Z,29.80
2022-08-16T12:57:22.955Z,30.00
2022-08-16T12:59:57.239Z,30.00
2022-08-16T13:02:33.822Z,29.90
2022-08-16T13:05:30.651Z,29.60
2022-08-16T13:08:02.122Z,29.50
2022-08-16T13:10:37.827Z,29.60
2022-08-16T13:13:11.565Z,29.70
2022-08-16T13:15:55.834Z,29.60
2022-08-16T13:18:34.068Z,29.60
2022-08-16T13:21:10.634Z,29.50
2022-08-16T13:23:43.387Z,29.60
2022-08-16T13:26:18.774Z,29.60
2022-08-16T13:28:50.348Z,29.60
2022-08-16T13:31:21.846Z,29.70
2022-08-16T13:33:58.919Z,29.60
2022-08-16T13:36:48.479Z,29.50
2022-08-16T13:39:24.539Z,29.50
2022-08-16T13:41:56.228Z,29.40
2022-08-16T13:44:48.387Z,29.50
2022-08-16T13:47:19.915Z,29.40
2022-08-16T13:50:12.493Z,29.40
2022-08-16T13:52:45.071Z,29.40
2022-08-16T13:55:18.142Z,29.40
2022-08-16T13:58:34.289Z,29.30
2022-08-16T14:01:00.936Z,29.40
2022-08-16T14:03:34.456Z,29.40
2022-08-16T14:06:05.904Z,29.50
2022-08-16T14:08:37.621Z,29.40
2022-08-16T14:11:17.776Z,29.40
2022-08-16T14:13:52.051Z,29.40
2022-08-16T14:16:33.659Z,29.40
2022-08-16T14:19:09.590Z,29.40
2022-08-16T14:21:53.433Z,29.40
2022-08-16T14:24:31.545Z,29.40
2022-08-16T14:27:09.194Z,29.40
2022-08-16T14:29:44.375Z,29.20
2022-08-16T14:32:32.470Z,29.30
2022-08-16T14:35:17.164Z,29.30
2022-08-16T14:38:10.796Z,29.20
2022-08-16T14:40:55.602Z,29.30
2022-08-16T14:43:46.968Z,29.20
2022-08-16T14:46:18.523Z,29.20
2022-08-16T14:48:51.140Z,29.20
2022-08-16T14:51:27.406Z,29.20
2022-08-16T14:54:02.940Z,29.20
2022-08-16T14:56:38.611Z,29.20
2022-08-16T14:59:14.601Z,29.20
2022-08-16T15:01:59.359Z,28.90
2022-08-16T15:04:40.493Z,29.00
2022-08-16T15:07:21.598Z,29.10
2022-08-16T15:10:00.539Z,29.10
2022-08-16T15:12:36.915Z,29.10
2022-08-16T15:15:16.492Z,29.10
2022-08-16T15:18:12.132Z,29.20
2022-08-16T15:21:05.051Z,29.20
2022-08-16T15:23:41.527Z,28.90
2022-08-16T15:26:29.596Z,29.00
2022-08-16T15:29:08.263Z,29.10
2022-08-16T15:31:45.806Z,29.00
2022-08-16T15:34:43.400Z,29.00
2022-08-16T15:37:42.864Z,29.10
2022-08-16T15:40:32.206Z,29.00
2022-08-16T15:43:10.949Z,28.90
2022-08-16T15:46:35.013Z,28.80
2022-08-16T15:49:12.416Z,28.70
2022-08-16T15:51:46.395Z,28.60
2022-08-16T15:54:30.123Z,28.70
2022-08-16T15:57:11.530Z,28.70
2022-08-16T15:59:48.486Z,28.40
2022-08-16T16:02:41.596Z,28.60
2022-08-16T16:05:14.524Z,28.70
2022-08-16T16:07:55.837Z,28.70
2022-08-16T16:10:30.155Z,28.60
2022-08-16T16:13:05.300Z,28.60
2022-08-16T16:16:03.763Z,28.60
2022-08-16T16:18:41.956Z,28.50
2022-08-16T16:21:20.975Z,28.40
2022-08-16T16:24:21.540Z,28.40
2022-08-16T16:26:55.982Z,28.40
2022-08-16T16:30:11.343Z,28.50
2022-08-16T16:33:01.931Z,28.30
2022-08-16T16:35:37.411Z,28.40
2022-08-16T16:38:08.637Z,28.50
2022-08-16T16:40:46.381Z,28.50
2022-08-16T16:43:31.995Z,28.40
2022-08-16T16:46:40.651Z,28.50
2022-08-16T16:49:21.160Z,28.50
2022-08-16T16:51:52.762Z,28.60
2022-08-16T16:54:31.271Z,28.50
2022-08-16T16:57:42.382Z,28.40
2022-08-16T17:00:30.074Z,28.30
2022-08-16T17:03:32.146Z,28.30
2022-08-16T17:06:09.242Z,28.30
2022-08-16T17:08:44.148Z,28.30
2022-08-16T17:11:19.071Z,28.40
2022-08-16T17:14:13.844Z,28.40
2022-08-16T17:17:13.227Z,28.50
2022-08-16T17:19:44.998Z,28.40
2022-08-16T17:22:19.630Z,28.20
2022-08-16T17:24:56.357Z,28.30
2022-08-16T17:27:32.353Z,28.40
2022-08-16T17:30:16.478Z,28.50
2022-08-16T17:32:57.434Z,28.50
2022-08-16T17:35:43.062Z,28.30
2022-08-16T17:38:16.807Z,28.20
2022-08-16T17:41:08.965Z,28.30
2022-08-16T17:43:44.160Z,28.30
2022-08-16T17:46:50.770Z,28.30
2022-08-16T17:49:09.341Z,28.30
2022-08-16T17:51:40.585Z,28.30
2022-08-16T17:54:20.587Z,28.40
2022-08-16T17:57:02.970Z,28.40
2022-08-16T17:59:54.362Z,28.50
2022-08-16T18:02:43.776Z,28.40
2022-08-16T18:05:36.359Z,28.40
2022-08-16T18:08:10.087Z,28.40
2022-08-16T18:10:41.932Z,28.30
2022-08-16T18:13:13.945Z,28.30
2022-08-16T18:15:46.430Z,28.20
2022-08-16T18:18:21.838Z,28.10
2022-08-16T18:21:11.731Z,28.10
2022-08-16T18:23:42.892Z,28.20
2022-08-16T18:26:14.266Z,28.20
2022-08-16T18:28:45.551Z,28.30
2022-08-16T18:31:17.042Z,28.30
2022-08-16T18:33:48.309Z,28.20
2022-08-16T18:36:19.920Z,28.10
2022-08-16T18:38:54.000Z,28.00
2022-08-16T18:41:27.811Z,28.10
2022-08-16T18:44:26.694Z,28.20
2022-08-16T18:46:52.125Z,28.20
2022-08-16T18:49:23.146Z,28.00
2022-08-16T18:51:59.454Z,28.00
2022-08-16T18:54:33.102Z,28.00
2022-08-16T18:57:07.878Z,28.10
2022-08-16T18:59:42.554Z,28.20
2022-08-16T19:02:42.912Z,28.20
2022-08-16T19:05:07.641Z,28.20
2022-08-16T19:07:39.637Z,28.30
2022-08-16T19:10:11.765Z,28.30
2022-08-16T19:12:42.971Z,28.30
2022-08-16T19:15:18.791Z,28.30
2022-08-16T19:20:35.255Z,28.30
2022-08-16T19:23:09.832Z,28.30
2022-08-16T19:25:48.347Z,28.30
2022-08-16T19:28:50.949Z,28.30
2022-08-16T19:31:28.113Z,28.20
2022-08-16T19:34:02.525Z,28.10
2022-08-16T19:36:37.445Z,28.00
2022-08-16T19:39:32.825Z,28.10
2022-08-16T19:42:16.458Z,28.10
2022-08-16T19:44:49.489Z,28.20
2022-08-16T19:47:20.809Z,28.20
2022-08-16T19:49:52.880Z,28.20
2022-08-16T19:52:28.005Z,28.20
2022-08-16T19:55:06.162Z,28.20
2022-08-16T19:57:58.153Z,28.20
2022-08-16T20:00:35.282Z,28.20
2022-08-16T20:03:14.699Z,28.10
2022-08-16T20:05:46.890Z,28.10
2022-08-16T20:08:18.321Z,28.10
2022-08-16T20:10:51.122Z,28.10
2022-08-16T20:13:25.659Z,28.10
2022-08-16T20:16:17.568Z,28.10
2022-08-16T20:18:49.281Z,27.90
2022-08-16T20:21:20.910Z,27.90
2022-08-16T20:23:54.073Z,27.90
2022-08-16T20:26:30.915Z,28.00
2022-08-16T20:29:02.324Z,27.90
2022-08-16T20:31:33.558Z,27.90
2022-08-16T20:34:04.907Z,27.90
2022-08-16T20:36:55.890Z,27.90
2022-08-16T20:39:27.211Z,27.90
2022-08-16T20:41:58.451Z,28.00
2022-08-16T20:44:29.764Z,27.90
2022-08-16T20:47:01.000Z,27.80
2022-08-16T20:49:32.316Z,27.80
2022-08-16T20:52:03.864Z,27.80
2022-08-16T20:54:35.272Z,27.70
2022-08-16T20:57:07.908Z,27.70
2022-08-16T20:59:58.932Z,27.70
2022-08-16T21:02:49.967Z,27.80
2022-08-16T21:05:31.863Z,27.70
2022-08-16T21:08:08.235Z,27.70
2022-08-16T21:10:55.138Z,27.70
2022-08-16T21:13:32.144Z,27.70
2022-08-16T21:16:04.400Z,27.70
2022-08-16T21:18:35.794Z,27.70
2022-08-16T21:21:07.056Z,27.70
2022-08-16T21:23:39.128Z,27.80
2022-08-16T21:26:11.046Z,27.80
2022-08-16T21:28:43.567Z,27.80
2022-08-16T21:31:17.138Z,27.70
2022-08-16T21:33:55.266Z,27.80
2022-08-16T21:36:35.955Z,27.70
2022-08-16T21:39:09.460Z,27.70
2022-08-16T21:41:41.701Z,27.80
2022-08-16T21:44:12.796Z,27.60
2022-08-16T21:46:44.066Z,27.60
2022-08-16T21:49:15.320Z,27.60
2022-08-16T21:51:46.682Z,27.50
2022-08-16T21:54:18.192Z,27.50
2022-08-16T21:56:49.321Z,27.40
2022-08-16T21:59:20.686Z,27.50
2022-08-16T22:01:51.991Z,27.50
2022-08-16T22:04:37.730Z,27.40
2022-08-16T22:07:10.892Z,27.50
2022-08-16T22:09:42.568Z,27.50
2022-08-16T22:12:24.901Z,27.60
2022-08-16T22:14:56.309Z,27.60
2022-08-16T22:17:47.075Z,27.50
2022-08-16T22:20:18.297Z,27.40
2022-08-16T22:22:49.787Z,27.40
2022-08-16T22:25:21.589Z,27.40
2022-08-16T22:27:52.894Z,27.50
2022-08-16T22:30:24.231Z,27.50
2022-08-16T22:32:55.439Z,27.50
2022-08-16T22:35:26.857Z,27.50
2022-08-16T22:38:47.762Z,27.50
2022-08-16T22:40:50.595Z,27.30
2022-08-16T22:43:22.987Z,27.40
2022-08-16T22:45:54.216Z,27.40
2022-08-16T22:48:45.026Z,27.40
2022-08-16T22:51:16.206Z,27.50
2022-08-16T22:53:47.714Z,27.60
2022-08-16T22:56:19.581Z,27.50
2022-08-16T22:58:51.008Z,27.50
2022-08-16T23:01:24.678Z,27.60
2022-08-16T23:03:58.652Z,27.60
2022-08-16T23:06:29.402Z,27.70
2022-08-16T23:09:00.649Z,27.60
2022-08-16T23:11:35.914Z,27.70
2022-08-16T23:14:08.456Z,27.80
2022-08-16T23:16:40.178Z,27.90
2022-08-16T23:19:14.079Z,27.90
2022-08-16T23:21:48.542Z,27.90
2022-08-16T23:24:21.808Z,27.90
2022-08-16T23:26:53.050Z,28.00
2022-08-16T23:29:26.675Z,28.10
2022-08-16T23:32:28.677Z,28.10
2022-08-16T23:35:21.598Z,28.20
2022-08-16T23:37:56.171Z,28.30
2022-08-16T23:40:26.906Z,28.30
2022-08-16T23:43:30.378Z,28.30
2022-08-16T23:46:05.421Z,28.30
2022-08-16T23:49:57.793Z,28.30
2022-08-16T23:54:34.723Z,28.40
2022-08-16T23:57:06.700Z,28.50
2022-08-16T23:59:52.354Z,28.60
